createdAt,value
2023-02-13T00:02:56.152Z,100172.53
2023-02-13T00:05:57.713Z,100175.00
2023-02-13T00:08:59.222Z,100170.41
2023-02-13T00:12:00.730Z,100168.44
2023-02-13T00:15:02.712Z,100168.63
2023-02-13T00:18:04.553Z,100170.50
2023-02-13T00:21:07.882Z,100165.94
2023-02-13T00:24:09.505Z,100166.44
2023-02-13T00:27:11.050Z,100160.31
2023-02-13T00:30:13.072Z,100170.91
2023-02-13T00:33:14.644Z,100162.50
2023-02-13T00:36:18.839Z,100165.38
2023-02-13T00:39:20.334Z,100163.69
2023-02-13T00:42:26.344Z,100161.63
2023-02-13T00:45:27.894Z,100160.63
2023-02-13T00:48:30.461Z,100164.28
2023-02-13T00:51:32.045Z,100164.09
2023-02-13T00:54:33.561Z,100162.50
2023-02-13T00:57:35.076Z,100173.09
2023-02-13T01:00:37.311Z,100170.22
2023-02-13T01:03:39.045Z,100175.94
2023-02-13T01:06:40.618Z,100170.81
2023-02-13T01:09:42.255Z,100172.09
2023-02-13T01:12:43.751Z,100171.91
2023-02-13T01:15:45.846Z,100178.13
2023-02-13T01:18:47.386Z,100172.00
2023-02-13T01:21:48.870Z,100174.66
2023-02-13T01:24:50.396Z,100171.19
2023-02-13T01:27:51.976Z,100179.50
2023-02-13T01:30:54.956Z,100176.53
2023-02-13T01:33:58.040Z,100180.28
2023-02-13T01:36:59.527Z,100176.53
2023-02-13T01:40:01.122Z,100173.09
2023-02-13T01:43:02.623Z,100179.19
2023-02-13T01:46:04.781Z,100179.63
2023-02-13T01:49:13.827Z,100166.56
2023-02-13T01:52:15.391Z,100172.38
2023-02-13T01:55:17.199Z,100170.31
2023-02-13T01:58:20.667Z,100166.38
2023-02-13T02:01:22.295Z,100171.59
2023-02-13T02:04:34.019Z,100166.38
2023-02-13T02:07:36.360Z,100178.59
2023-02-13T02:10:37.868Z,100168.84
2023-02-13T02:13:39.365Z,100170.41
2023-02-13T02:16:40.885Z,100172.00
2023-02-13T02:20:04.927Z,100167.16
2023-02-13T02:23:28.305Z,100168.34
2023-02-13T02:26:44.867Z,100167.72
2023-02-13T02:30:16.594Z,100173.44
2023-02-13T02:33:18.903Z,100164.75
2023-02-13T02:36:57.714Z,100162.31
2023-02-13T02:40:03.216Z,100161.00
2023-02-13T02:43:23.379Z,100162.00
2023-02-13T02:46:37.872Z,100163.78
2023-02-13T02:49:58.557Z,100171.97
2023-02-13T02:53:07.560Z,100164.66
2023-02-13T02:56:24.425Z,100160.72
2023-02-13T02:59:44.584Z,100161.06
2023-02-13T03:03:04.752Z,100169.03
2023-02-13T03:06:21.315Z,100163.72
2023-02-13T03:09:46.104Z,100162.41
2023-02-13T03:13:19.924Z,100167.44
2023-02-13T03:16:42.074Z,100167.25
2023-02-13T03:20:16.685Z,100165.09
2023-02-13T03:23:33.178Z,100172.59
2023-02-13T03:27:04.768Z,100176.63
2023-02-13T03:30:59.336Z,100174.94
2023-02-13T03:34:19.550Z,100168.63
2023-02-13T03:37:45.697Z,100180.66
2023-02-13T03:41:19.836Z,100181.13
2023-02-13T03:44:35.853Z,100169.69
2023-02-13T03:47:37.387Z,100173.13
2023-02-13T03:50:39.365Z,100174.34
2023-02-13T03:53:40.901Z,100175.22
2023-02-13T03:57:00.933Z,100170.56
2023-02-13T04:00:03.329Z,100172.19
2023-02-13T04:03:14.785Z,100179.75
2023-02-13T04:06:21.840Z,100179.75
2023-02-13T04:09:24.860Z,100186.47
2023-02-13T04:12:47.796Z,100185.06
2023-02-13T04:15:52.812Z,100192.63
2023-02-13T04:18:54.373Z,100191.88
2023-02-13T04:22:00.052Z,100192.84
2023-02-13T04:25:01.550Z,100192.63
2023-02-13T04:28:03.186Z,100199.44
2023-02-13T04:31:04.880Z,100199.03
2023-02-13T04:34:06.509Z,100210.16
2023-02-13T04:37:07.993Z,100206.16
2023-02-13T04:40:09.900Z,100208.81
2023-02-13T04:43:11.467Z,100202.44
2023-02-13T04:46:13.061Z,100202.56
2023-02-13T04:49:14.574Z,100204.41
2023-02-13T04:52:16.038Z,100210.41
2023-02-13T04:55:17.543Z,100203.22
2023-02-13T04:58:19.051Z,100200.97
2023-02-13T05:01:20.647Z,100194.81
2023-02-13T05:04:22.337Z,100197.06
2023-02-13T05:07:23.892Z,100193.72
2023-02-13T05:10:25.396Z,100193.94
2023-02-13T05:13:26.905Z,100189.81
2023-02-13T05:16:28.371Z,100184.00
2023-02-13T05:19:29.857Z,100188.25
2023-02-13T05:22:49.736Z,100191.59
2023-02-13T05:25:51.231Z,100185.59
2023-02-13T05:29:11.399Z,100185.59
2023-02-13T05:32:12.994Z,100193.28
2023-02-13T05:35:14.638Z,100190.19
2023-02-13T05:38:16.132Z,100186.41
2023-02-13T05:41:17.631Z,100178.81
2023-02-13T05:44:19.166Z,100185.72
2023-02-13T05:47:20.673Z,100180.97
2023-02-13T05:50:22.626Z,100179.53
2023-02-13T05:53:24.188Z,100180.75
2023-02-13T05:56:25.653Z,100176.75
2023-02-13T05:59:27.195Z,100173.28
2023-02-13T06:02:28.691Z,100169.28
2023-02-13T06:05:30.214Z,100168.22
2023-02-13T06:08:31.801Z,100171.59
2023-02-13T06:11:33.276Z,100179.63
2023-02-13T06:14:34.746Z,100175.47
2023-02-13T06:17:36.245Z,100173.38
2023-02-13T06:20:37.856Z,100183.63
2023-02-13T06:23:39.368Z,100186.19
2023-02-13T06:26:40.928Z,100186.34
2023-02-13T06:29:42.423Z,100188.13
2023-02-13T06:32:43.985Z,100187.59
2023-02-13T06:35:45.511Z,100190.38
2023-02-13T06:38:47.017Z,100200.94
2023-02-13T06:41:48.574Z,100208.94
2023-02-13T06:44:50.141Z,100209.50
2023-02-13T06:47:51.857Z,100213.16
2023-02-13T06:50:53.546Z,100222.63
2023-02-13T06:53:55.046Z,100228.31
2023-02-13T06:56:56.564Z,100223.09
2023-02-13T06:59:58.086Z,100224.06
2023-02-13T07:03:03.857Z,100223.19
2023-02-13T07:06:05.527Z,100235.03
2023-02-13T07:09:07.073Z,100237.22
2023-02-13T07:12:08.574Z,100240.78
2023-02-13T07:15:10.168Z,100247.47
2023-02-13T07:22:07.921Z,100256.94
2023-02-13T07:25:09.428Z,100258.94
2023-02-13T07:28:11.314Z,100262.81
2023-02-13T07:31:12.932Z,100260.41
2023-02-13T07:34:14.572Z,100256.38
2023-02-13T07:37:16.076Z,100260.81
2023-02-13T07:40:17.615Z,100263.81
2023-02-13T07:43:19.166Z,100256.66
2023-02-13T07:46:21.781Z,100255.19
2023-02-13T07:49:23.357Z,100260.09
2023-02-13T07:52:24.867Z,100261.34
2023-02-13T07:55:26.993Z,100260.81
2023-02-13T07:58:28.507Z,100255.44
2023-02-13T08:01:30.100Z,100258.31
2023-02-13T08:04:31.668Z,100259.69
2023-02-13T08:07:33.170Z,100261.19
2023-02-13T08:10:53.244Z,100255.47
2023-02-13T08:13:54.751Z,100253.59
2023-02-13T08:16:56.730Z,100252.28
2023-02-13T08:19:58.281Z,100251.28
2023-02-13T08:23:04.379Z,100247.53
2023-02-13T08:26:05.962Z,100254.22
2023-02-13T08:29:07.776Z,100254.25
2023-02-13T08:32:09.337Z,100266.66
2023-02-13T08:35:11.043Z,100275.84
2023-02-13T08:38:12.572Z,100292.56
2023-02-13T08:41:14.427Z,100330.41
2023-02-13T08:44:15.968Z,100366.28
2023-02-13T08:47:17.529Z,100414.66
2023-02-13T08:50:19.109Z,100445.41
2023-02-13T08:53:20.635Z,100448.59
2023-02-13T08:56:22.350Z,100444.25
2023-02-13T08:59:23.862Z,100448.63
2023-02-13T09:02:25.416Z,100441.06
2023-02-13T09:05:27.415Z,100444.88
2023-02-13T09:08:28.945Z,100447.44
2023-02-13T09:11:30.455Z,100442.16
2023-02-13T09:14:32.106Z,100443.41
2023-02-13T09:17:33.717Z,100435.47
2023-02-13T09:20:36.144Z,100439.16
2023-02-13T09:23:40.082Z,100438.59
2023-02-13T09:26:41.626Z,100426.06
2023-02-13T09:29:43.188Z,100433.66
2023-02-13T09:32:44.648Z,100428.91
2023-02-13T09:35:46.152Z,100422.34
2023-02-13T09:38:48.322Z,100428.03
2023-02-13T09:41:50.046Z,100430.31
2023-02-13T09:44:53.234Z,100427.56
2023-02-13T09:47:54.687Z,100425.63
2023-02-13T09:50:57.133Z,100432.34
2023-02-13T09:54:08.369Z,100436.16
2023-02-13T09:57:29.030Z,100437.63
2023-02-13T10:00:34.568Z,100428.78
2023-02-13T10:03:44.972Z,100422.44
2023-02-13T10:06:50.293Z,100418.84
2023-02-13T10:09:58.261Z,100416.88
2023-02-13T10:13:02.936Z,100418.09
2023-02-13T10:16:12.646Z,100423.13
2023-02-13T10:19:19.975Z,100414.09
2023-02-13T10:22:43.266Z,100412.41
2023-02-13T10:26:05.854Z,100410.38
2023-02-13T10:29:26.931Z,100416.38
2023-02-13T10:32:52.065Z,100414.50
2023-02-13T10:36:19.565Z,100406.69
2023-02-13T10:39:26.173Z,100405.81
2023-02-13T10:42:46.237Z,100404.69
2023-02-13T10:46:18.747Z,100399.28
2023-02-13T10:49:47.825Z,100397.50
2023-02-13T10:52:56.544Z,100392.78
2023-02-13T10:56:17.053Z,100400.63
2023-02-13T10:59:36.172Z,100402.63
2023-02-13T11:02:38.748Z,100402.53
2023-02-13T11:05:40.373Z,100406.78
2023-02-13T11:08:46.401Z,100410.09
2023-02-13T11:11:47.905Z,100409.25
2023-02-13T11:15:03.466Z,100412.00
2023-02-13T11:18:18.709Z,100405.81
2023-02-13T11:21:21.835Z,100403.25
2023-02-13T11:24:24.473Z,100404.88
2023-02-13T11:27:28.497Z,100399.16
2023-02-13T11:30:37.621Z,100399.41
2023-02-13T11:33:39.272Z,100398.72
2023-02-13T11:36:40.769Z,100390.16
2023-02-13T11:39:43.117Z,100390.28
2023-02-13T11:42:44.481Z,100382.09
2023-02-13T11:45:45.941Z,100381.69
2023-02-13T11:49:03.202Z,100385.34
2023-02-13T11:52:06.357Z,100377.19
2023-02-13T11:55:36.201Z,100389.41
2023-02-13T11:58:37.903Z,100378.63
2023-02-13T12:01:39.383Z,100375.69
2023-02-13T12:04:40.942Z,100373.91
2023-02-13T12:07:43.327Z,100387.03
2023-02-13T12:10:44.825Z,100380.41
2023-02-13T12:13:46.394Z,100380.81
2023-02-13T12:17:31.487Z,100379.94
2023-02-13T12:20:55.965Z,100379.97
2023-02-13T12:24:11.332Z,100374.66
2023-02-13T12:27:29.618Z,100377.38
2023-02-13T12:30:34.203Z,100377.88
2023-02-13T12:33:54.514Z,100370.16
2023-02-13T12:37:05.653Z,100375.31
2023-02-13T12:40:34.914Z,100374.50
2023-02-13T12:44:01.394Z,100378.16
2023-02-13T12:47:05.840Z,100367.31
2023-02-13T12:50:28.588Z,100365.63
2023-02-13T12:53:37.699Z,100375.09
2023-02-13T12:56:51.454Z,100365.31
2023-02-13T13:00:31.608Z,100359.50
2023-02-13T13:03:54.577Z,100358.41
2023-02-13T13:07:07.438Z,100347.00
2023-02-13T13:10:33.538Z,100357.75
2023-02-13T13:14:03.436Z,100353.66
2023-02-13T13:17:30.069Z,100356.91
2023-02-13T13:20:51.563Z,100364.31
2023-02-13T13:24:01.027Z,100357.22
2023-02-13T13:27:02.602Z,100362.75
2023-02-13T13:30:06.396Z,100351.13
2023-02-13T13:33:21.814Z,100355.13
2023-02-13T13:36:41.118Z,100346.56
2023-02-13T13:39:49.954Z,100350.34
2023-02-13T13:43:20.738Z,100347.66
2023-02-13T13:46:58.698Z,100348.78
2023-02-13T13:50:00.314Z,100343.00
2023-02-13T13:53:16.026Z,100346.50
2023-02-13T13:56:17.510Z,100335.91
2023-02-13T13:59:19.944Z,100335.13
2023-02-13T14:02:21.332Z,100343.03
2023-02-13T14:05:30.540Z,100337.13
2023-02-13T14:08:41.224Z,100329.63
2023-02-13T14:11:46.520Z,100330.50
2023-02-13T14:14:49.094Z,100330.66
2023-02-13T14:17:51.452Z,100332.41
2023-02-13T14:20:54.913Z,100333.56
2023-02-13T14:24:00.671Z,100343.84
2023-02-13T14:27:06.302Z,100350.44
2023-02-13T14:30:42.739Z,100352.59
2023-02-13T14:33:44.242Z,100346.63
2023-02-13T14:36:49.650Z,100339.47
2023-02-13T14:40:11.415Z,100334.25
2023-02-13T14:43:24.845Z,100323.75
2023-02-13T14:46:38.122Z,100327.81
2023-02-13T14:49:40.005Z,100323.88
2023-02-13T14:52:43.120Z,100332.19
2023-02-13T14:55:45.474Z,100322.19
2023-02-13T14:58:51.743Z,100318.09
2023-02-13T15:02:00.788Z,100313.13
2023-02-13T15:05:04.839Z,100311.00
2023-02-13T15:08:13.358Z,100316.75
2023-02-13T15:11:38.159Z,100307.28
2023-02-13T15:14:39.683Z,100306.84
2023-02-13T15:17:41.265Z,100302.44
2023-02-13T15:20:42.772Z,100295.53
2023-02-13T15:23:44.287Z,100287.78
2023-02-13T15:26:50.509Z,100285.81
2023-02-13T15:30:20.070Z,100285.88
2023-02-13T15:33:22.799Z,100274.44
2023-02-13T15:36:25.767Z,100271.16
2023-02-13T15:39:29.569Z,100267.69
2023-02-13T15:42:40.021Z,100269.31
2023-02-13T15:45:41.509Z,100258.44
2023-02-13T15:48:43.163Z,100250.00
2023-02-13T15:51:45.716Z,100245.56
2023-02-13T15:54:51.137Z,100239.44
2023-02-13T15:57:54.706Z,100234.38
2023-02-13T16:00:56.393Z,100234.28
2023-02-13T16:04:03.959Z,100224.00
2023-02-13T16:07:09.026Z,100225.75
2023-02-13T16:10:29.366Z,100209.03
2023-02-13T16:13:30.871Z,100205.19
2023-02-13T16:16:53.980Z,100190.63
2023-02-13T16:20:11.430Z,100190.81
2023-02-13T16:23:17.424Z,100187.47
2023-02-13T16:26:19.463Z,100188.81
2023-02-13T16:29:23.634Z,100182.78
2023-02-13T16:32:32.887Z,100180.41
2023-02-13T16:35:35.678Z,100184.44
2023-02-13T16:38:37.918Z,100179.50
2023-02-13T16:41:39.374Z,100171.59
2023-02-13T16:44:40.841Z,100171.34
2023-02-13T16:47:42.344Z,100167.25
2023-02-13T16:50:43.852Z,100165.31
2023-02-13T16:53:45.342Z,100173.88
2023-02-13T16:57:06.389Z,100170.09
2023-02-13T17:00:28.367Z,100175.09
2023-02-13T17:03:31.618Z,100163.66
2023-02-13T17:06:33.106Z,100156.31
2023-02-13T17:09:34.613Z,100149.66
2023-02-13T17:12:37.912Z,100157.25
2023-02-13T17:15:43.973Z,100146.00
2023-02-13T17:18:45.492Z,100148.13
2023-02-13T17:21:47.003Z,100151.53
2023-02-13T17:24:48.509Z,100150.34
2023-02-13T17:27:50.943Z,100145.25
2023-02-13T17:30:54.140Z,100146.00
2023-02-13T17:33:55.661Z,100143.34
2023-02-13T17:36:57.153Z,100146.03
2023-02-13T17:39:58.856Z,100146.47
2023-02-13T17:43:00.404Z,100147.19
2023-02-13T17:46:01.967Z,100144.16
2023-02-13T17:49:04.392Z,100141.75
2023-02-13T17:52:05.884Z,100136.09
2023-02-13T17:55:14.643Z,100138.75
2023-02-13T17:58:16.147Z,100143.00
2023-02-13T18:01:17.679Z,100138.31
2023-02-13T18:04:19.213Z,100124.75
2023-02-13T18:07:20.885Z,100136.50
2023-02-13T18:10:23.447Z,100139.03
2023-02-13T18:13:24.947Z,100130.69
2023-02-13T18:16:26.427Z,100139.81
2023-02-13T18:19:27.948Z,100132.53
2023-02-13T18:22:29.470Z,100143.72
2023-02-13T18:25:31.023Z,100132.34
2023-02-13T18:28:32.581Z,100133.84
2023-02-13T18:31:34.175Z,100128.09
2023-02-13T18:34:35.815Z,100121.88
2023-02-13T18:37:39.144Z,100117.59
2023-02-13T18:40:41.084Z,100117.41
2023-02-13T18:43:42.658Z,100113.88
2023-02-13T18:46:44.154Z,100111.38
2023-02-13T18:49:46.444Z,100109.75
2023-02-13T18:52:47.963Z,100112.44
2023-02-13T18:55:49.481Z,100115.41
2023-02-13T18:58:51.129Z,100110.00
2023-02-13T19:01:52.657Z,100111.59
2023-02-13T19:04:54.301Z,100118.91
2023-02-13T19:07:55.790Z,100120.72
2023-02-13T19:11:00.571Z,100120.59
2023-02-13T19:14:02.470Z,100120.16
2023-02-13T19:17:03.990Z,100114.09
2023-02-13T19:20:06.166Z,100108.88
2023-02-13T19:23:07.659Z,100110.63
2023-02-13T19:26:13.507Z,100113.34
2023-02-13T19:29:15.038Z,100110.78
2023-02-13T19:32:16.603Z,100111.38
2023-02-13T19:35:18.096Z,100105.75
2023-02-13T19:38:19.552Z,100113.34
2023-02-13T19:41:21.111Z,100121.16
2023-02-13T19:44:22.620Z,100121.44
2023-02-13T19:47:24.122Z,100120.38
2023-02-13T19:50:25.635Z,100123.22
2023-02-13T19:53:27.109Z,100120.44
2023-02-13T19:56:28.986Z,100118.47
2023-02-13T19:59:32.528Z,100122.94
2023-02-13T20:02:34.185Z,100122.84
2023-02-13T20:05:39.285Z,100118.09
2023-02-13T20:08:42.888Z,100114.06
2023-02-13T20:11:45.479Z,100113.47
2023-02-13T20:14:46.979Z,100119.50
2023-02-13T20:17:48.563Z,100125.31
2023-02-13T20:20:50.062Z,100112.28
2023-02-13T20:23:51.600Z,100118.03
2023-02-13T20:26:56.378Z,100120.88
2023-02-13T20:30:06.388Z,100121.56
2023-02-13T20:33:08.847Z,100118.31
2023-02-13T20:36:10.585Z,100117.44
2023-02-13T20:39:12.126Z,100126.47
2023-02-13T20:42:13.589Z,100123.53
2023-02-13T20:45:15.128Z,100124.03
2023-02-13T20:48:16.892Z,100121.28
2023-02-13T20:51:18.468Z,100125.22
2023-02-13T20:54:19.973Z,100125.69
2023-02-13T20:57:21.452Z,100125.59
2023-02-13T21:00:23.009Z,100125.91
2023-02-13T21:03:24.524Z,100132.03
2023-02-13T21:06:30.807Z,100124.03
2023-02-13T21:09:32.328Z,100125.00
2023-02-13T21:12:34.886Z,100120.97
2023-02-13T21:15:37.378Z,100125.50
2023-02-13T21:18:39.169Z,100129.34
2023-02-13T21:21:44.063Z,100121.06
2023-02-13T21:24:45.992Z,100133.09
2023-02-13T21:27:47.512Z,100133.00
2023-02-13T21:30:49.049Z,100132.31
2023-02-13T21:33:50.838Z,100128.84
2023-02-13T21:36:52.355Z,100127.78
2023-02-13T21:39:53.920Z,100128.53
2023-02-13T21:42:55.420Z,100133.28
2023-02-13T21:46:12.083Z,100134.53
2023-02-13T21:49:15.822Z,100127.34
2023-02-13T21:52:18.265Z,100123.97
2023-02-13T21:55:19.795Z,100119.44
2023-02-13T21:58:21.287Z,100123.22
2023-02-13T22:01:26.778Z,100124.69
2023-02-13T22:04:28.619Z,100125.03
2023-02-13T22:07:30.314Z,100127.53
2023-02-13T22:10:31.840Z,100127.59
2023-02-13T22:13:36.288Z,100124.16
2023-02-13T22:16:38.236Z,100130.09
2023-02-13T22:19:39.750Z,100120.59
2023-02-13T22:22:41.233Z,100121.06
2023-02-13T22:25:50.292Z,100127.00
2023-02-13T22:28:51.979Z,100131.91
2023-02-13T22:31:53.685Z,100130.06
2023-02-13T22:34:55.311Z,100133.38
2023-02-13T22:37:56.801Z,100139.06
2023-02-13T22:41:07.549Z,100135.44
2023-02-13T22:44:09.063Z,100129.53
2023-02-13T22:47:10.620Z,100120.81
2023-02-13T22:50:12.109Z,100122.50
2023-02-13T22:53:13.646Z,100120.66
2023-02-13T22:56:15.147Z,100108.00
2023-02-13T22:59:16.664Z,100113.44
2023-02-13T23:02:18.382Z,100117.59
2023-02-13T23:05:19.927Z,100113.34
2023-02-13T23:08:21.389Z,100119.38
2023-02-13T23:11:43.448Z,100126.25
2023-02-13T23:14:44.967Z,100114.28
2023-02-13T23:18:05.156Z,100134.00
2023-02-13T23:21:06.942Z,100125.22
2023-02-13T23:24:08.684Z,100131.50
2023-02-13T23:27:10.270Z,100133.38
2023-02-13T23:30:12.491Z,100126.16
2023-02-13T23:33:14.014Z,100117.03
2023-02-13T23:36:15.490Z,100129.94
2023-02-13T23:39:17.035Z,100135.06
2023-02-13T23:42:18.561Z,100130.78
2023-02-13T23:45:20.079Z,100136.03
2023-02-13T23:48:21.598Z,100138.31
2023-02-13T23:51:25.486Z,100129.41
2023-02-13T23:54:27.083Z,100131.19
2023-02-13T23:57:28.604Z,100132.34
